Aviation Digital Data Service (ADDS)

Output produced by METARs form (0527 UTC 03 July 2022)
found at http://www.aviationweather.gov/metar/data/
 
LHBP 030500Z 32004KT CAVOK 21/15 Q1019 NOSIG
LHBP 030430Z VRB01KT CAVOK 19/16 Q1019 NOSIG
LHBP 030400Z 36003KT 320V040 CAVOK 17/15 Q1019 NOSIG
LHBP 030330Z 34003KT CAVOK 15/14 Q1020 NOSIG
LHBP 030300Z 00000KT CAVOK 16/14 Q1019 NOSIG
LHBP 030230Z 10002KT CAVOK 17/14 Q1019 NOSIG
TAF LHBP 030515Z 0306/0406 VRB03KT CAVOK 
     BECMG 0309/0312 31007KT 
     TEMPO 0320/0406 VRB03KT
       
LHDC 030445Z AUTO 04008KT 010V070 CAVOK 21/16 Q1019 NOSIG
LHDC 030415Z AUTO 03009KT CAVOK 20/16 Q1019 NOSIG
LHDC 030345Z AUTO 03007KT 350V060 CAVOK 20/15 Q1019 NOSIG
LHDC 030315Z AUTO 03008KT 350V060 CAVOK 19/15 Q1019 NOSIG
LHDC 030245Z AUTO 02006KT 350V050 CAVOK 19/15 Q1019 NOSIG
TAF LHDC 030515Z 0306/0315 03008KT CAVOK 
     BECMG 0306/0307 32005KT
       
LHKE 030445Z 05006KT CAVOK 20/16 Q1019 NOSIG RMK BLU
LHKE 030415Z 02004KT CAVOK 19/15 Q1019 NOSIG RMK BLU
LHKE 030345Z 01004KT CAVOK 18/15 Q1019 NOSIG RMK BLU
LHKE 030315Z 02004KT CAVOK 18/15 Q1019 NOSIG RMK BLU
LHKE 030245Z 02004KT CAVOK 18/15 Q1019 NOSIG RMK BLU
TAF LHKE 030445Z 0306/0315 36008KT CAVOK 
     TEMPO 0309/0315 36014KT 9999 FEW045
       
LHPA 030415Z 00000KT CAVOK 15/13 Q1019 NOSIG RMK BLU
LHPA 030345Z 00000KT CAVOK 13/13 Q1019 NOSIG RMK BLU
LHPA 030315Z 00000KT CAVOK 13/12 Q1019 NOSIG RMK BLU
LHPA 030245Z 12002KT CAVOK 13/12 Q1019 NOSIG RMK BLU
TAF LHPA 030445Z 0306/0406 34008KT CAVOK 
     TEMPO 0308/0317 33014KT 9999 FEW045 
     BECMG 0319/0322 VRB03KT
       
LHPP 030445Z AUTO VRB03KT CAVOK 20/13 Q1019
LHPP 030415Z AUTO 00000KT CAVOK 20/14 Q1019
LHPP 030345Z AUTO 06003KT CAVOK 19/13 Q1019
LHPP 030315Z AUTO 06005KT 030V100 CAVOK 20/13 Q1019
LHPP 030245Z AUTO 06003KT CAVOK 19/13 Q1019
TAF LHPP 030515Z 0306/0315 VRB03KT CAVOK 
     BECMG 0309/0312 35007KT
       
LHPR 030445Z AUTO VRB02KT CAVOK 16/13 Q1019 NOSIG
LHPR 030415Z AUTO VRB02KT CAVOK 14/12 Q1020 NOSIG
LHPR 030345Z AUTO 00000KT CAVOK 13/11 Q1019
LHPR 030315Z AUTO 10003KT CAVOK 12/11 Q1019
LHPR 030245Z AUTO 00000KT CAVOK 12/11 Q1019
TAF LHPR 030515Z 0306/0315 VRB03KT CAVOK 
     BECMG 0308/0311 30008KT
       
LHSM 030445Z AUTO 31004KT 280V340 CAVOK 16/14 Q1020
LHSM 030415Z AUTO 30003KT CAVOK 16/13 Q1019
LHSM 030345Z AUTO 32005KT CAVOK 15/13 Q1019
LHSM 030315Z AUTO 32004KT CAVOK 14/13 Q1019
LHSM 030245Z AUTO 00000KT CAVOK 14/13 Q1019
TAF LHSM 030515Z 0306/0315 33006KT CAVOK 
     TEMPO 0306/0310 VRB03KT
       
LHSN 030445Z 05008KT CAVOK 21/15 Q1019 NOSIG RMK BLU
LHSN 030415Z 04004KT CAVOK 20/16 Q1019 NOSIG RMK BLU
LHSN 030345Z 04004KT CAVOK 19/15 Q1019 NOSIG RMK BLU
LHSN 030315Z 01004KT CAVOK 18/15 Q1019 NOSIG RMK BLU
LHSN 030245Z 36002KT CAVOK 18/15 Q1019 NOSIG RMK BLU
TAF LHSN 030215Z 0303/0312 04006KT CAVOK 
     BECMG 0307/0309 33004KT